XSE weather

Sebba Airport
Sebba, Seno, Burkina Faso

Public forecast

Using degrees Celsius for public forecast. Weather courtesy of forecast.io.

Closest aviation weather report (METAR) to Sebba Airport

Report is more than 6 hours old.

Closest report is Dori Airport, 47.5 nm (87.9 km) NW. Retrieved 2009/09/21 17:00 UTC (10 years ago):

DFEE 211700Z 14002KT 9/9 FEW020 BKN260 34/21

Closest aviation forecast (TAF) to Sebba Airport

Closest forecast is Diori Hamani International Airport, 97.3 nm (180.3 km) E. Retrieved 2020/02/28 18:21 UTC (3 hours ago):

TAF DRRN 281700Z 2818/2924 04006KT 4000 DU NSC BECMG 2822/2824 6000 NSW PROB30 TEMPO 2908/2912 08016KT 3500 BLDU